createdAt,value
2023-05-14T00:03:47.588Z,53.66
2023-05-14T00:06:16.878Z,54.05
2023-05-14T00:08:43.901Z,54.69
2023-05-14T00:11:11.133Z,54.53
2023-05-14T00:18:05.496Z,54.79
2023-05-14T00:20:32.596Z,54.82
2023-05-14T00:27:24.940Z,55.16
2023-05-14T00:30:02.882Z,55.47
2023-05-14T00:32:31.716Z,55.98
2023-05-14T00:39:36.011Z,56.06
2023-05-14T00:42:03.023Z,55.95
2023-05-14T00:48:56.069Z,56.51
2023-05-14T00:51:23.717Z,56.41
2023-05-14T00:53:51.096Z,56.52
2023-05-14T00:56:19.244Z,56.67
2023-05-14T01:03:11.104Z,57.30
2023-05-14T01:15:05.076Z,58.15
2023-05-14T01:22:03.435Z,59.19
2023-05-14T01:33:48.601Z,59.46
2023-05-14T01:40:51.248Z,59.53
2023-05-14T01:47:48.582Z,59.46
2023-05-14T01:50:16.227Z,59.48
2023-05-14T01:57:11.189Z,60.29
2023-05-14T01:59:38.228Z,61.47
2023-05-14T02:06:40.356Z,61.03
2023-05-14T02:09:07.498Z,61.31
2023-05-14T02:16:01.387Z,63.34
2023-05-14T02:18:51.148Z,61.08
2023-05-14T02:21:18.343Z,61.63
2023-05-14T02:28:13.398Z,61.55
2023-05-14T02:30:40.564Z,60.98
2023-05-14T02:37:32.931Z,61.40
2023-05-14T02:40:00.237Z,61.98
2023-05-14T02:42:27.347Z,60.95
2023-05-14T02:49:19.834Z,62.05
2023-05-14T02:51:49.798Z,61.41
2023-05-14T02:54:16.965Z,61.77
2023-05-14T02:56:44.179Z,61.96
2023-05-14T03:01:16.897Z,61.91
2023-05-14T03:04:06.043Z,62.34
2023-05-14T03:06:33.123Z,61.30
2023-05-14T03:13:25.494Z,61.27
2023-05-14T03:15:55.182Z,61.86
2023-05-14T03:22:57.586Z,60.65
2023-05-14T03:25:24.763Z,60.73
2023-05-14T03:36:53.842Z,61.81
2023-05-14T03:39:21.344Z,60.94
2023-05-14T03:41:48.502Z,60.52
2023-05-14T03:48:46.711Z,60.01
2023-05-14T03:55:50.870Z,60.25
2023-05-14T03:58:18.536Z,59.87
2023-05-14T04:00:45.747Z,60.30
2023-05-14T04:10:14.132Z,60.14
2023-05-14T04:19:24.755Z,59.69
2023-05-14T04:21:51.758Z,59.36
2023-05-14T04:24:18.791Z,59.62
2023-05-14T04:33:27.972Z,59.30
2023-05-14T04:35:54.977Z,59.56
2023-05-14T04:47:22.894Z,57.65
2023-05-14T04:49:50.176Z,57.33
2023-05-14T04:52:17.113Z,58.27
2023-05-14T05:01:31.601Z,58.74
2023-05-14T05:03:58.863Z,59.64
2023-05-14T05:09:13.831Z,59.42
2023-05-14T05:17:35.051Z,59.78
2023-05-14T05:20:04.170Z,59.60
2023-05-14T05:25:16.937Z,60.09
2023-05-14T05:27:43.949Z,59.14
2023-05-14T05:41:05.886Z,57.02
2023-05-14T05:46:15.183Z,55.49
2023-05-14T05:48:42.136Z,54.51
2023-05-14T05:51:09.212Z,54.83
2023-05-14T05:53:42.309Z,55.02
2023-05-14T06:07:39.602Z,52.23
2023-05-14T06:26:41.739Z,48.74
2023-05-14T06:29:08.794Z,48.46
2023-05-14T06:31:38.234Z,48.73
2023-05-14T06:34:05.334Z,48.04
2023-05-14T06:53:02.317Z,45.34
2023-05-14T06:55:29.349Z,43.91
2023-05-14T06:57:56.344Z,44.50
2023-05-14T07:00:23.699Z,44.32
2023-05-14T07:02:57.022Z,43.79
2023-05-14T07:05:25.215Z,43.16
2023-05-14T07:07:52.393Z,43.23
2023-05-14T07:10:19.443Z,43.59
2023-05-14T07:24:15.704Z,42.37
2023-05-14T07:26:42.749Z,43.01
2023-05-14T07:29:12.298Z,43.50
2023-05-14T07:37:11.953Z,43.52
2023-05-14T07:39:39.223Z,43.64
2023-05-14T07:42:06.448Z,44.01
2023-05-14T07:44:33.436Z,43.83
2023-05-14T07:47:00.599Z,44.22
2023-05-14T07:49:27.745Z,44.59
2023-05-14T07:51:54.710Z,44.33
2023-05-14T07:54:21.786Z,44.61
2023-05-14T07:56:48.747Z,43.73
2023-05-14T07:59:15.872Z,44.20
2023-05-14T08:01:42.936Z,43.83
2023-05-14T08:04:12.337Z,43.85
2023-05-14T08:06:39.415Z,43.14
2023-05-14T08:09:06.898Z,41.85
2023-05-14T08:11:33.986Z,41.85
2023-05-14T08:14:01.105Z,42.77
2023-05-14T08:16:28.236Z,42.19
2023-05-14T08:18:55.492Z,41.61
2023-05-14T08:21:22.911Z,41.40
2023-05-14T08:23:49.865Z,42.13
2023-05-14T08:26:16.842Z,43.15
2023-05-14T08:28:43.814Z,42.69
2023-05-14T08:31:10.998Z,40.72
2023-05-14T08:33:38.153Z,41.75
2023-05-14T08:36:05.641Z,42.24
2023-05-14T08:38:32.640Z,42.93
2023-05-14T08:41:00.621Z,42.19
2023-05-14T08:43:35.485Z,42.47
2023-05-14T08:46:07.172Z,43.28
2023-05-14T08:48:35.420Z,42.96
2023-05-14T08:51:03.130Z,42.41
2023-05-14T08:53:31.359Z,41.81
2023-05-14T08:56:00.319Z,42.08
2023-05-14T08:58:29.693Z,42.16
2023-05-14T09:00:59.556Z,42.42
2023-05-14T09:03:27.144Z,39.76
2023-05-14T09:05:54.615Z,39.72
2023-05-14T09:08:22.095Z,39.63
2023-05-14T09:10:49.262Z,39.83
2023-05-14T09:13:16.537Z,40.35
2023-05-14T09:15:43.602Z,42.75
2023-05-14T09:18:29.398Z,43.42
2023-05-14T09:20:56.500Z,43.77
2023-05-14T09:23:26.761Z,43.79
2023-05-14T09:25:53.819Z,43.21
2023-05-14T09:28:23.045Z,42.03
2023-05-14T09:30:53.040Z,42.59
2023-05-14T09:33:28.452Z,40.52
2023-05-14T09:35:59.738Z,40.81
2023-05-14T09:38:33.201Z,40.69
2023-05-14T09:41:01.228Z,41.92
2023-05-14T09:43:28.900Z,42.27
2023-05-14T09:46:01.275Z,42.41
2023-05-14T09:48:29.046Z,42.65
2023-05-14T09:50:56.103Z,42.85
2023-05-14T09:53:23.390Z,42.98
2023-05-14T09:55:50.898Z,43.23
2023-05-14T09:58:19.478Z,43.58
2023-05-14T10:00:47.992Z,43.02
2023-05-14T10:03:18.752Z,41.74
2023-05-14T10:05:49.648Z,41.95
2023-05-14T10:08:26.897Z,41.86
2023-05-14T10:10:58.665Z,41.20
2023-05-14T10:13:31.881Z,40.42
2023-05-14T10:16:09.798Z,39.87
2023-05-14T10:18:43.153Z,39.15
2023-05-14T10:21:11.793Z,39.37
2023-05-14T10:23:39.208Z,39.08
2023-05-14T10:26:07.064Z,39.64
2023-05-14T10:28:34.456Z,39.89
2023-05-14T10:31:01.543Z,41.08
2023-05-14T10:33:28.847Z,39.44
2023-05-14T10:36:05.846Z,39.19
2023-05-14T10:38:35.118Z,39.21
2023-05-14T10:41:04.276Z,38.98
2023-05-14T10:43:36.470Z,38.92
2023-05-14T10:46:04.515Z,38.80
2023-05-14T10:48:33.032Z,39.49
2023-05-14T10:51:03.460Z,38.78
2023-05-14T10:53:36.429Z,38.61
2023-05-14T10:56:11.780Z,38.84
2023-05-14T10:58:44.049Z,38.85
2023-05-14T11:01:13.115Z,38.51
2023-05-14T11:06:31.563Z,37.70
2023-05-14T11:09:02.952Z,37.87
2023-05-14T11:11:30.132Z,38.40
2023-05-14T11:13:58.301Z,39.12
2023-05-14T11:16:30.921Z,39.58
2023-05-14T11:19:03.784Z,39.02
2023-05-14T11:21:33.113Z,38.70
2023-05-14T11:24:01.052Z,39.33
2023-05-14T11:26:28.103Z,38.23
2023-05-14T11:28:55.464Z,37.89
2023-05-14T11:31:22.699Z,38.96
2023-05-14T11:34:14.887Z,39.54
2023-05-14T11:36:42.448Z,39.92
2023-05-14T11:39:27.956Z,39.25
2023-05-14T11:41:55.029Z,39.15
2023-05-14T11:44:22.910Z,39.19
2023-05-14T11:46:57.657Z,40.10
2023-05-14T11:49:25.759Z,40.27
2023-05-14T11:52:00.323Z,39.61
2023-05-14T11:54:31.009Z,39.62
2023-05-14T11:56:59.509Z,38.22
2023-05-14T11:59:45.881Z,38.99
2023-05-14T12:02:15.164Z,38.97
2023-05-14T12:04:43.072Z,38.88
2023-05-14T12:07:12.395Z,39.58
2023-05-14T12:09:44.276Z,40.55
2023-05-14T12:12:12.901Z,39.55
2023-05-14T12:14:43.840Z,39.35
2023-05-14T12:17:18.057Z,39.62
2023-05-14T12:19:47.013Z,39.40
2023-05-14T12:22:38.844Z,39.87
2023-05-14T12:25:12.976Z,40.55
2023-05-14T12:27:40.623Z,40.33
2023-05-14T12:32:42.293Z,40.78
2023-05-14T12:35:09.727Z,40.90
2023-05-14T12:37:37.746Z,39.98
2023-05-14T12:40:09.367Z,40.14
2023-05-14T12:42:37.454Z,40.73
2023-05-14T12:45:08.176Z,40.88
2023-05-14T12:47:36.499Z,41.03
2023-05-14T12:50:04.068Z,41.67
2023-05-14T12:52:38.565Z,41.44
2023-05-14T12:55:08.316Z,41.24
2023-05-14T12:57:35.858Z,40.63
2023-05-14T13:00:07.238Z,41.42
2023-05-14T13:02:42.771Z,41.69
2023-05-14T13:05:12.310Z,42.41
2023-05-14T13:07:39.907Z,42.06
2023-05-14T13:10:07.531Z,43.52
2023-05-14T13:12:34.597Z,43.08
2023-05-14T13:15:01.595Z,42.88
2023-05-14T13:17:31.139Z,42.39
2023-05-14T13:19:58.411Z,42.07
2023-05-14T13:22:25.547Z,41.57
2023-05-14T13:24:52.524Z,41.93
2023-05-14T13:27:19.574Z,42.16
2023-05-14T13:29:46.609Z,41.04
2023-05-14T13:32:13.692Z,40.36
2023-05-14T13:34:40.778Z,41.11
2023-05-14T13:37:33.363Z,41.01
2023-05-14T13:43:36.465Z,39.89
2023-05-14T13:52:33.207Z,41.60
2023-05-14T13:55:00.271Z,40.98
2023-05-14T13:57:27.416Z,41.79
2023-05-14T13:59:54.470Z,41.07
2023-05-14T14:08:26.921Z,42.29
2023-05-14T14:10:55.574Z,43.00
2023-05-14T14:13:23.411Z,42.85
2023-05-14T14:15:51.949Z,43.52
2023-05-14T14:19:12.557Z,44.39
2023-05-14T14:21:42.931Z,43.86
2023-05-14T14:24:10.246Z,43.73
2023-05-14T14:26:37.412Z,43.79
2023-05-14T14:29:04.598Z,43.26
2023-05-14T14:32:48.466Z,43.03
2023-05-14T14:57:55.183Z,42.94
2023-05-14T18:49:59.346Z,51.40
2023-05-14T18:52:28.554Z,51.50
2023-05-14T19:22:57.573Z,52.90
2023-05-14T19:46:44.182Z,53.90
2023-05-14T20:24:34.080Z,56.56
2023-05-14T21:01:32.383Z,57.96
2023-05-14T21:04:24.668Z,57.77
2023-05-14T21:07:17.924Z,57.67
2023-05-14T21:10:11.027Z,57.56
2023-05-14T21:12:38.114Z,57.45
2023-05-14T22:52:11.021Z,62.98
2023-05-14T22:55:04.263Z,63.32
2023-05-14T22:58:47.894Z,63.69
2023-05-14T23:01:15.144Z,62.94
2023-05-14T23:04:08.064Z,64.18
2023-05-14T23:06:59.573Z,64.22
